sensor_id;sensor_type;location;lat;lon;timestamp;P1;durP1;ratioP1;P2;durP2;ratioP2
51780;SDS011;37844;57.126;24.288;2023-02-17T13:51:45;48.08;;;23.92;;
51780;SDS011;37844;57.126;24.288;2023-02-17T13:54:11;43.17;;;23.08;;
51780;SDS011;37844;57.126;24.288;2023-02-17T13:56:37;47.00;;;23.73;;
51780;SDS011;37844;57.126;24.288;2023-02-17T13:59:12;47.85;;;23.90;;
51780;SDS011;37844;57.126;24.288;2023-02-17T14:01:43;40.15;;;25.25;;
51780;SDS011;37844;57.126;24.288;2023-02-17T14:04:43;38.65;;;23.60;;
51780;SDS011;37844;57.126;24.288;2023-02-17T14:07:02;39.45;;;22.83;;
51780;SDS011;37844;57.126;24.288;2023-02-17T14:12:00;52.75;;;26.80;;
51780;SDS011;37844;57.126;24.288;2023-02-17T14:14:30;45.03;;;24.95;;
51780;SDS011;37844;57.126;24.288;2023-02-17T14:17:07;45.28;;;26.17;;
51780;SDS011;37844;57.126;24.288;2023-02-17T14:19:57;47.67;;;24.42;;
51780;SDS011;37844;57.126;24.288;2023-02-17T14:22:28;48.10;;;25.60;;
51780;SDS011;37844;57.126;24.288;2023-02-17T14:24:59;47.38;;;25.80;;
51780;SDS011;37844;57.126;24.288;2023-02-17T14:27:27;44.53;;;24.33;;
51780;SDS011;37844;57.126;24.288;2023-02-17T14:30:04;44.42;;;25.80;;
51780;SDS011;37844;57.126;24.288;2023-02-17T14:32:34;50.90;;;27.35;;
51780;SDS011;37844;57.126;24.288;2023-02-17T14:37:33;47.25;;;26.08;;
51780;SDS011;37844;57.126;24.288;2023-02-17T14:40:02;48.55;;;26.48;;
51780;SDS011;37844;57.126;24.288;2023-02-17T14:42:38;52.58;;;29.88;;
51780;SDS011;37844;57.126;24.288;2023-02-17T14:45:03;54.72;;;27.98;;
51780;SDS011;37844;57.126;24.288;2023-02-17T14:47:29;42.30;;;24.13;;
51780;SDS011;37844;57.126;24.288;2023-02-17T14:49:54;40.95;;;25.52;;
51780;SDS011;37844;57.126;24.288;2023-02-17T14:52:21;45.30;;;24.60;;
51780;SDS011;37844;57.126;24.288;2023-02-17T14:54:48;49.60;;;27.48;;
51780;SDS011;37844;57.126;24.288;2023-02-17T14:57:14;49.33;;;26.10;;
51780;SDS011;37844;57.126;24.288;2023-02-17T14:59:40;50.85;;;24.35;;
51780;SDS011;37844;57.126;24.288;2023-02-17T15:02:17;48.75;;;27.45;;
51780;SDS011;37844;57.126;24.288;2023-02-17T15:04:45;42.80;;;25.25;;
51780;SDS011;37844;57.126;24.288;2023-02-17T15:07:11;42.83;;;23.05;;
51780;SDS011;37844;57.126;24.288;2023-02-17T15:09:38;49.22;;;23.55;;
51780;SDS011;37844;57.126;24.288;2023-02-17T15:12:10;40.63;;;22.70;;
51780;SDS011;37844;57.126;24.288;2023-02-17T15:14:41;45.78;;;23.83;;
51780;SDS011;37844;57.126;24.288;2023-02-17T15:17:07;41.72;;;24.10;;
51780;SDS011;37844;57.126;24.288;2023-02-17T15:19:32;45.58;;;22.98;;
51780;SDS011;37844;57.126;24.288;2023-02-17T15:21:58;49.63;;;27.70;;
51780;SDS011;37844;57.126;24.288;2023-02-17T15:24:25;44.05;;;23.83;;
51780;SDS011;37844;57.126;24.288;2023-02-17T15:26:53;52.40;;;27.25;;
51780;SDS011;37844;57.126;24.288;2023-02-17T15:29:20;53.78;;;27.25;;
51780;SDS011;37844;57.126;24.288;2023-02-17T15:31:47;53.90;;;27.70;;
51780;SDS011;37844;57.126;24.288;2023-02-17T15:34:15;52.53;;;26.40;;
51780;SDS011;37844;57.126;24.288;2023-02-17T15:36:43;63.30;;;28.63;;
51780;SDS011;37844;57.126;24.288;2023-02-17T15:39:13;48.92;;;25.48;;
51780;SDS011;37844;57.126;24.288;2023-02-17T15:41:40;51.47;;;24.95;;
51780;SDS011;37844;57.126;24.288;2023-02-17T15:44:11;51.97;;;25.15;;
51780;SDS011;37844;57.126;24.288;2023-02-17T15:46:49;53.63;;;27.20;;
51780;SDS011;37844;57.126;24.288;2023-02-17T15:49:16;59.83;;;26.05;;
51780;SDS011;37844;57.126;24.288;2023-02-17T15:51:41;56.10;;;23.65;;
51780;SDS011;37844;57.126;24.288;2023-02-17T15:54:07;54.65;;;25.33;;
51780;SDS011;37844;57.126;24.288;2023-02-17T15:56:43;61.15;;;28.02;;
51780;SDS011;37844;57.126;24.288;2023-02-17T15:59:20;56.13;;;26.45;;
51780;SDS011;37844;57.126;24.288;2023-02-17T16:01:48;55.15;;;27.20;;
51780;SDS011;37844;57.126;24.288;2023-02-17T16:04:14;49.78;;;25.13;;
51780;SDS011;37844;57.126;24.288;2023-02-17T16:06:40;51.33;;;27.50;;
51780;SDS011;37844;57.126;24.288;2023-02-17T16:09:06;49.33;;;25.50;;
51780;SDS011;37844;57.126;24.288;2023-02-17T16:11:32;54.67;;;27.75;;
51780;SDS011;37844;57.126;24.288;2023-02-17T16:13:59;67.75;;;28.23;;
51780;SDS011;37844;57.126;24.288;2023-02-17T16:16:26;54.42;;;27.73;;
51780;SDS011;37844;57.126;24.288;2023-02-17T16:18:56;60.28;;;27.60;;
51780;SDS011;37844;57.126;24.288;2023-02-17T16:21:22;59.83;;;28.20;;
51780;SDS011;37844;57.126;24.288;2023-02-17T16:23:48;57.70;;;26.40;;
51780;SDS011;37844;57.126;24.288;2023-02-17T16:26:56;53.60;;;29.02;;
51780;SDS011;37844;57.126;24.288;2023-02-17T16:29:14;58.28;;;29.13;;
51780;SDS011;37844;57.126;24.288;2023-02-17T16:31:41;51.80;;;26.70;;
51780;SDS011;37844;57.126;24.288;2023-02-17T16:34:12;61.38;;;28.65;;
51780;SDS011;37844;57.126;24.288;2023-02-17T16:36:41;53.65;;;26.90;;
51780;SDS011;37844;57.126;24.288;2023-02-17T16:39:11;62.55;;;30.35;;
51780;SDS011;37844;57.126;24.288;2023-02-17T16:41:38;61.85;;;29.25;;
51780;SDS011;37844;57.126;24.288;2023-02-17T16:44:04;54.17;;;29.23;;
51780;SDS011;37844;57.126;24.288;2023-02-17T16:46:31;52.72;;;26.23;;
51780;SDS011;37844;57.126;24.288;2023-02-17T16:48:59;64.18;;;29.33;;
51780;SDS011;37844;57.126;24.288;2023-02-17T16:51:26;64.57;;;30.70;;
51780;SDS011;37844;57.126;24.288;2023-02-17T16:53:52;65.78;;;28.25;;
51780;SDS011;37844;57.126;24.288;2023-02-17T16:58:57;56.85;;;29.33;;
51780;SDS011;37844;57.126;24.288;2023-02-17T17:01:23;60.33;;;27.02;;
51780;SDS011;37844;57.126;24.288;2023-02-17T17:03:48;55.50;;;27.20;;
